createdAt,value
2022-10-30T00:00:41.044Z,98649.94
2022-10-30T00:03:11.074Z,98647.25
2022-10-30T00:05:39.863Z,98636.59
2022-10-30T00:08:06.677Z,98644.31
2022-10-30T00:10:33.135Z,98646.19
2022-10-30T00:12:59.598Z,98641.13
2022-10-30T00:15:26.063Z,98638.44
2022-10-30T00:17:52.525Z,98632.84
2022-10-30T00:20:19.229Z,98631.50
2022-10-30T00:22:47.016Z,98633.91
2022-10-30T00:25:13.481Z,98636.03
2022-10-30T00:27:39.955Z,98635.47
2022-10-30T00:30:07.063Z,98637.06
2022-10-30T00:32:33.514Z,98643.72
2022-10-30T00:35:00.008Z,98647.19
2022-10-30T00:37:26.798Z,98645.59
2022-10-30T00:39:53.272Z,98642.91
2022-10-30T00:42:19.739Z,98642.34
2022-10-30T00:44:50.238Z,98644.22
2022-10-30T00:47:27.360Z,98634.31
2022-10-30T00:50:09.174Z,98633.03
2022-10-30T00:52:37.417Z,98630.34
2022-10-30T00:55:07.576Z,98631.69
2022-10-30T00:57:34.325Z,98636.22
2022-10-30T01:00:00.837Z,98628.50
2022-10-30T01:02:27.584Z,98632.75
2022-10-30T01:04:54.158Z,98635.16
2022-10-30T01:07:21.700Z,98638.38
2022-10-30T01:09:48.185Z,98631.19
2022-10-30T01:12:15.448Z,98631.19
2022-10-30T01:14:45.434Z,98625.06
2022-10-30T01:17:37.153Z,98631.19
2022-10-30T01:20:26.712Z,98630.41
2022-10-30T01:23:31.893Z,98635.22
2022-10-30T01:26:22.263Z,98627.22
2022-10-30T01:29:16.276Z,98635.22
2022-10-30T01:32:05.938Z,98628.84
2022-10-30T01:34:47.348Z,98625.09
2022-10-30T01:37:22.325Z,98624.56
2022-10-30T01:39:48.844Z,98628.84
2022-10-30T01:42:52.977Z,98626.16
2022-10-30T01:45:30.326Z,98622.69
2022-10-30T01:48:18.403Z,98626.97
2022-10-30T01:51:03.830Z,98628.56
2022-10-30T01:53:35.519Z,98622.16
2022-10-30T01:56:11.081Z,98629.38
2022-10-30T01:58:43.513Z,98628.31
2022-10-30T02:01:10.024Z,98628.56
2022-10-30T02:03:36.527Z,98634.16
2022-10-30T02:06:03.066Z,98641.34
2022-10-30T02:08:29.511Z,98636.81
2022-10-30T02:10:56.301Z,98636.53
2022-10-30T02:13:22.779Z,98640.25
2022-10-30T02:15:49.323Z,98640.75
2022-10-30T02:18:17.187Z,98635.44
2022-10-30T02:20:43.693Z,98635.16
2022-10-30T02:23:16.714Z,98631.69
2022-10-30T02:25:43.210Z,98635.44
2022-10-30T02:28:09.671Z,98628.22
2022-10-30T02:30:36.135Z,98629.00
2022-10-30T02:33:02.722Z,98634.63
2022-10-30T02:35:29.802Z,98636.50
2022-10-30T02:37:56.665Z,98631.44
2022-10-30T02:40:23.323Z,98631.16
2022-10-30T02:42:53.324Z,98630.09
2022-10-30T02:45:20.161Z,98632.50
2022-10-30T02:47:46.647Z,98627.16
2022-10-30T02:50:13.288Z,98630.66
2022-10-30T02:52:39.942Z,98630.66
2022-10-30T02:55:06.619Z,98633.31
2022-10-30T02:57:33.801Z,98628.00
2022-10-30T03:00:00.342Z,98631.19
2022-10-30T03:02:26.822Z,98640.00
2022-10-30T03:04:53.322Z,98629.59
2022-10-30T03:07:19.788Z,98622.66
2022-10-30T03:09:46.249Z,98630.41
2022-10-30T03:12:12.698Z,98621.84
2022-10-30T03:14:39.207Z,98621.84
2022-10-30T03:17:05.696Z,98613.59
2022-10-30T03:19:32.189Z,98624.28
2022-10-30T03:21:58.666Z,98633.31
2022-10-30T03:24:25.144Z,98622.09
2022-10-30T03:26:51.608Z,98623.69
2022-10-30T03:29:18.063Z,98630.91
2022-10-30T03:31:44.522Z,98625.34
2022-10-30T03:34:11.124Z,98628.78
2022-10-30T03:36:37.592Z,98632.22
2022-10-30T03:39:04.632Z,98629.56
2022-10-30T03:41:31.103Z,98630.59
2022-10-30T03:43:57.549Z,98637.00
2022-10-30T03:46:24.013Z,98629.25
2022-10-30T03:48:50.648Z,98640.19
2022-10-30T03:51:17.199Z,98632.19
2022-10-30T03:53:43.673Z,98633.22
2022-10-30T03:56:10.162Z,98640.69
2022-10-30T03:58:36.614Z,98642.81
2022-10-30T04:01:06.800Z,98635.81
2022-10-30T04:03:33.326Z,98640.13
2022-10-30T04:05:59.865Z,98638.75
2022-10-30T04:08:26.342Z,98639.81
2022-10-30T04:10:52.842Z,98634.22
2022-10-30T04:13:20.360Z,98640.13
2022-10-30T04:15:56.115Z,98643.81
2022-10-30T04:18:24.462Z,98639.53
2022-10-30T04:20:50.938Z,98630.75
2022-10-30T04:23:18.539Z,98631.03
2022-10-30T04:25:45.100Z,98632.06
2022-10-30T04:28:11.646Z,98625.44
2022-10-30T04:30:39.420Z,98621.69
2022-10-30T04:33:07.189Z,98625.44
2022-10-30T04:35:34.759Z,98624.88
2022-10-30T04:38:08.280Z,98629.38
2022-10-30T04:40:36.024Z,98624.06
2022-10-30T04:43:05.220Z,98625.91
2022-10-30T04:45:31.893Z,98625.13
2022-10-30T04:48:11.561Z,98634.19
2022-10-30T04:50:38.875Z,98638.44
2022-10-30T04:53:13.963Z,98644.84
2022-10-30T04:55:40.430Z,98640.56
2022-10-30T04:58:08.122Z,98629.59
2022-10-30T05:00:35.098Z,98627.75
2022-10-30T05:03:01.755Z,98618.69
2022-10-30T05:05:29.191Z,98622.97
2022-10-30T05:07:55.989Z,98640.31
2022-10-30T05:10:22.779Z,98633.91
2022-10-30T05:12:51.690Z,98637.34
2022-10-30T05:15:18.151Z,98632.56
2022-10-30T05:17:44.603Z,98618.47
2022-10-30T05:20:14.742Z,98610.47
2022-10-30T05:22:42.874Z,98620.84
2022-10-30T05:25:09.656Z,98615.78
2022-10-30T05:27:36.123Z,98614.47
2022-10-30T05:30:02.589Z,98623.25
2022-10-30T05:32:29.061Z,98616.91
2022-10-30T05:34:55.568Z,98605.41
2022-10-30T05:37:22.072Z,98617.13
2022-10-30T05:39:48.885Z,98614.72
2022-10-30T05:42:15.364Z,98612.31
2022-10-30T05:44:59.701Z,98614.47
2022-10-30T05:47:27.151Z,98619.25
2022-10-30T05:49:53.611Z,98619.25
2022-10-30T05:52:20.076Z,98616.03
2022-10-30T05:54:46.612Z,98630.97
2022-10-30T05:57:13.067Z,98632.56
2022-10-30T05:59:39.523Z,98623.78
2022-10-30T06:02:06.029Z,98631.22
2022-10-30T06:04:32.542Z,98634.66
2022-10-30T06:06:59.005Z,98646.13
2022-10-30T06:09:25.457Z,98639.72
2022-10-30T06:11:51.941Z,98645.00
2022-10-30T06:14:18.393Z,98645.53
2022-10-30T06:16:44.896Z,98652.03
2022-10-30T06:19:15.650Z,98651.53
2022-10-30T06:21:45.559Z,98652.59
2022-10-30T06:24:12.067Z,98656.13
2022-10-30T06:26:38.545Z,98656.94
2022-10-30T06:29:05.023Z,98646.28
2022-10-30T06:31:31.500Z,98655.28
2022-10-30T06:33:58.036Z,98657.72
2022-10-30T06:36:24.509Z,98654.47
2022-10-30T06:38:50.982Z,98663.25
2022-10-30T06:41:17.441Z,98657.13
2022-10-30T06:43:43.934Z,98664.13
2022-10-30T06:46:10.458Z,98652.88
2022-10-30T06:48:36.918Z,98657.13
2022-10-30T06:51:03.459Z,98666.19
2022-10-30T06:53:29.933Z,98669.66
2022-10-30T06:56:00.492Z,98669.66
2022-10-30T06:58:27.282Z,98663.25
2022-10-30T07:00:53.777Z,98669.44
2022-10-30T07:03:20.270Z,98668.06
2022-10-30T07:05:46.792Z,98669.34
2022-10-30T07:08:13.291Z,98670.41
2022-10-30T07:10:39.879Z,98665.88
2022-10-30T07:13:06.355Z,98662.72
2022-10-30T07:15:32.870Z,98670.72
2022-10-30T07:18:03.314Z,98663.53
2022-10-30T07:20:32.141Z,98668.31
2022-10-30T07:22:58.722Z,98669.31
2022-10-30T07:25:25.271Z,98667.75
2022-10-30T07:27:52.145Z,98679.50
2022-10-30T07:33:01.967Z,98677.19
2022-10-30T07:35:29.001Z,98667.00
2022-10-30T07:37:55.595Z,98667.63
2022-10-30T07:40:22.211Z,98670.28
2022-10-30T07:42:48.663Z,98666.28
2022-10-30T07:45:15.230Z,98670.56
2022-10-30T07:47:45.134Z,98672.72
2022-10-30T07:50:11.813Z,98671.13
2022-10-30T07:52:38.321Z,98672.19
2022-10-30T07:55:05.287Z,98679.66
2022-10-30T07:57:38.509Z,98659.72
2022-10-30T08:00:06.073Z,98667.13
2022-10-30T08:02:32.753Z,98658.66
2022-10-30T08:04:59.319Z,98666.94
2022-10-30T08:07:36.254Z,98666.19
2022-10-30T08:10:02.906Z,98668.59
2022-10-30T08:12:29.381Z,98674.47
2022-10-30T08:14:55.854Z,98667.50
2022-10-30T08:17:22.322Z,98670.78
2022-10-30T08:19:49.374Z,98680.72
2022-10-30T08:22:15.830Z,98681.91
2022-10-30T08:24:42.313Z,98675.41
2022-10-30T08:27:09.463Z,98684.09
2022-10-30T08:29:35.936Z,98676.31
2022-10-30T08:32:02.391Z,98673.13
2022-10-30T08:34:31.593Z,98674.72
2022-10-30T08:36:58.420Z,98674.84
2022-10-30T08:39:24.884Z,98685.63
2022-10-30T08:41:51.337Z,98679.84
2022-10-30T08:44:17.793Z,98684.53
2022-10-30T08:46:44.259Z,98679.56
2022-10-30T08:49:10.716Z,98677.75
2022-10-30T08:51:37.194Z,98681.81
2022-10-30T08:54:03.766Z,98679.69
2022-10-30T08:56:30.238Z,98675.16
2022-10-30T08:58:56.695Z,98680.50
2022-10-30T09:01:23.288Z,98680.81
2022-10-30T09:03:49.862Z,98676.06
2022-10-30T09:06:16.326Z,98679.03
2022-10-30T09:08:42.833Z,98690.00
2022-10-30T09:11:09.353Z,98696.97
2022-10-30T09:13:35.800Z,98684.13
2022-10-30T09:16:02.449Z,98684.66
2022-10-30T09:18:29.129Z,98692.13
2022-10-30T09:20:55.633Z,98691.88
2022-10-30T09:23:22.474Z,98693.50
2022-10-30T09:25:48.942Z,98696.72
2022-10-30T09:28:15.395Z,98685.78
2022-10-30T09:30:42.140Z,98692.75
2022-10-30T09:33:08.727Z,98683.66
2022-10-30T09:35:37.013Z,98686.63
2022-10-30T09:38:03.636Z,98686.66
2022-10-30T09:40:37.634Z,98690.41
2022-10-30T09:43:22.341Z,98690.16
2022-10-30T09:46:20.033Z,98692.03
2022-10-30T09:49:04.635Z,98690.16
2022-10-30T09:51:49.012Z,98691.50
2022-10-30T09:54:35.422Z,98698.47
2022-10-30T09:57:09.797Z,98704.09
2022-10-30T09:59:45.557Z,98695.78
2022-10-30T10:02:58.169Z,98695.28
2022-10-30T10:05:27.102Z,98690.72
2022-10-30T10:07:57.293Z,98691.25
2022-10-30T10:10:32.593Z,98691.81
2022-10-30T10:13:01.497Z,98691.25
2022-10-30T10:15:49.900Z,98696.59
2022-10-30T10:18:23.900Z,98687.50
2022-10-30T10:20:51.472Z,98682.16
2022-10-30T10:23:33.815Z,98680.06
2022-10-30T10:26:00.728Z,98677.09
2022-10-30T10:28:56.566Z,98678.97
2022-10-30T10:31:22.934Z,98676.03
2022-10-30T10:34:16.999Z,98672.56
2022-10-30T10:37:08.181Z,98677.91
2022-10-30T10:40:15.007Z,98674.16
2022-10-30T10:43:14.327Z,98668.28
2022-10-30T10:45:56.428Z,98668.56
2022-10-30T10:48:52.986Z,98672.31
2022-10-30T10:51:29.922Z,98670.44
2022-10-30T10:54:05.779Z,98666.41
2022-10-30T10:56:36.846Z,98658.16
2022-10-30T10:59:04.823Z,98670.44
2022-10-30T11:01:39.838Z,98652.25
2022-10-30T11:04:09.015Z,98660.53
2022-10-30T11:06:36.317Z,98658.16
2022-10-30T11:09:22.047Z,98649.56
2022-10-30T11:11:49.376Z,98645.56
2022-10-30T11:14:27.938Z,98639.16
2022-10-30T11:17:12.851Z,98641.59
2022-10-30T11:19:39.334Z,98639.94
2022-10-30T11:22:38.397Z,98637.03
2022-10-30T11:25:26.922Z,98639.44
2022-10-30T11:27:58.126Z,98634.34
2022-10-30T11:30:26.376Z,98636.75
2022-10-30T11:32:55.401Z,98632.19
2022-10-30T11:35:23.606Z,98629.03
2022-10-30T11:38:10.896Z,98626.06
2022-10-30T11:40:37.417Z,98624.75
2022-10-30T11:43:04.421Z,98616.47
2022-10-30T11:45:32.682Z,98615.13
2022-10-30T11:48:02.452Z,98620.47
2022-10-30T11:50:30.674Z,98611.88
2022-10-30T11:53:21.708Z,98614.56
2022-10-30T11:55:48.305Z,98611.63
2022-10-30T11:58:29.459Z,98614.28
2022-10-30T12:01:06.099Z,98605.22
2022-10-30T12:03:39.597Z,98604.41
2022-10-30T12:06:20.018Z,98597.44
2022-10-30T12:09:00.378Z,98599.34
2022-10-30T12:11:34.101Z,98592.66
2022-10-30T12:14:00.610Z,98593.47
2022-10-30T12:16:27.242Z,98593.19
2022-10-30T12:19:02.507Z,98596.66
2022-10-30T12:21:38.936Z,98585.69
2022-10-30T12:24:10.607Z,98585.44
2022-10-30T12:26:37.104Z,98580.63
2022-10-30T12:29:12.411Z,98585.69
2022-10-30T12:31:40.937Z,98583.81
2022-10-30T12:34:25.124Z,98584.66
2022-10-30T12:36:55.466Z,98585.44
2022-10-30T12:39:23.778Z,98588.63
2022-10-30T12:42:10.766Z,98582.50
2022-10-30T12:44:42.510Z,98585.19
2022-10-30T12:47:11.310Z,98581.69
2022-10-30T12:50:13.267Z,98585.97
2022-10-30T12:52:59.683Z,98590.25
2022-10-30T12:55:34.682Z,98580.91
2022-10-30T12:58:14.579Z,98578.22
2022-10-30T13:00:55.876Z,98583.03
2022-10-30T13:03:26.439Z,98579.53
2022-10-30T13:05:59.941Z,98574.47
2022-10-30T13:08:30.897Z,98574.75
2022-10-30T13:11:09.786Z,98575.25
2022-10-30T13:13:50.030Z,98579.25
2022-10-30T13:16:37.675Z,98579.81
2022-10-30T13:19:05.770Z,98583.03
2022-10-30T13:21:46.737Z,98577.94
2022-10-30T13:24:18.107Z,98579.53
2022-10-30T13:26:53.194Z,98576.06
2022-10-30T13:29:29.849Z,98581.69
2022-10-30T13:32:20.635Z,98579.81
2022-10-30T13:35:18.318Z,98579.03
2022-10-30T13:38:03.144Z,98570.75
2022-10-30T13:40:33.838Z,98574.47
2022-10-30T13:43:06.921Z,98562.72
2022-10-30T13:45:44.623Z,98565.16
2022-10-30T13:48:20.581Z,98562.47
2022-10-30T13:50:58.563Z,98563.81
2022-10-30T13:53:26.771Z,98563.28
2022-10-30T13:55:53.228Z,98560.06
2022-10-30T13:58:28.355Z,98559.81
2022-10-30T14:00:57.763Z,98563.81
2022-10-30T14:03:48.444Z,98573.16
2022-10-30T14:06:33.708Z,98564.88
2022-10-30T14:09:19.745Z,98565.41
2022-10-30T14:11:46.290Z,98568.06
2022-10-30T14:14:12.625Z,98560.34
2022-10-30T14:16:42.815Z,98555.25
2022-10-30T14:19:12.935Z,98556.28
2022-10-30T14:21:52.814Z,98558.97
2022-10-30T14:24:21.740Z,98552.81
2022-10-30T14:27:03.228Z,98552.25
2022-10-30T14:29:36.010Z,98559.75
2022-10-30T14:32:14.459Z,98554.91
2022-10-30T14:34:50.203Z,98559.19
2022-10-30T14:37:22.606Z,98547.44
2022-10-30T14:39:50.218Z,98552.25
2022-10-30T14:42:20.182Z,98559.44
2022-10-30T14:45:01.260Z,98561.31
2022-10-30T14:47:42.877Z,98552.75
2022-10-30T14:50:27.592Z,98558.09
2022-10-30T14:52:57.376Z,98555.97
2022-10-30T14:55:55.402Z,98550.06
2022-10-30T14:58:29.855Z,98551.94
2022-10-30T15:01:18.987Z,98563.97
2022-10-30T15:04:09.556Z,98557.28
2022-10-30T15:06:48.070Z,98554.59
2022-10-30T15:09:23.930Z,98542.84
2022-10-30T15:12:08.657Z,98545.78
2022-10-30T15:14:53.411Z,98545.25
2022-10-30T15:17:28.352Z,98553.22
2022-10-30T15:19:54.861Z,98544.19
2022-10-30T15:22:21.962Z,98547.09
2022-10-30T15:24:48.495Z,98546.00
2022-10-30T15:27:17.277Z,98540.44
2022-10-30T15:29:45.473Z,98549.25
2022-10-30T15:32:19.696Z,98548.97
2022-10-30T15:35:02.816Z,98550.53
2022-10-30T15:37:29.443Z,98553.75
2022-10-30T15:40:14.166Z,98556.94
2022-10-30T15:42:40.692Z,98556.41
2022-10-30T15:45:17.379Z,98554.25
2022-10-30T15:47:46.330Z,98549.72
2022-10-30T15:50:12.863Z,98555.28
2022-10-30T15:52:40.232Z,98559.03
2022-10-30T15:55:07.863Z,98566.19
2022-10-30T16:00:30.561Z,98560.31
2022-10-30T16:03:04.554Z,98565.91
2022-10-30T16:05:31.122Z,98567.53
2022-10-30T16:07:58.770Z,98558.44
2022-10-30T16:10:32.340Z,98562.16
2022-10-30T16:12:59.087Z,98560.31
2022-10-30T16:15:35.934Z,98564.28
2022-10-30T16:18:10.325Z,98560.00
2022-10-30T16:20:37.094Z,98560.81
2022-10-30T16:23:03.994Z,98562.69
2022-10-30T16:25:32.600Z,98568.34
2022-10-30T16:27:59.282Z,98563.84
2022-10-30T16:30:29.405Z,98568.16
2022-10-30T16:32:56.075Z,98571.38
2022-10-30T16:35:23.084Z,98572.44
2022-10-30T16:37:50.596Z,98565.78
2022-10-30T16:40:19.373Z,98573.53
2022-10-30T16:42:53.165Z,98568.22
2022-10-30T16:45:19.520Z,98573.84
2022-10-30T16:47:46.913Z,98572.22
2022-10-30T16:50:15.277Z,98569.31
2022-10-30T16:52:41.751Z,98571.19
2022-10-30T16:55:13.096Z,98576.25
2022-10-30T16:57:43.793Z,98573.59
2022-10-30T17:00:27.537Z,98577.34
2022-10-30T17:02:55.421Z,98577.88
2022-10-30T17:05:29.105Z,98580.53
2022-10-30T17:08:00.079Z,98584.28
2022-10-30T17:10:42.633Z,98592.59
2022-10-30T17:13:31.832Z,98597.41
2022-10-30T17:15:58.768Z,98600.06
2022-10-30T17:18:31.338Z,98604.34
2022-10-30T17:21:06.572Z,98607.81
2022-10-30T17:23:33.355Z,98601.94
2022-10-30T17:25:59.823Z,98604.88
2022-10-30T17:28:33.151Z,98603.59
2022-10-30T17:31:19.386Z,98605.72
2022-10-30T17:33:46.427Z,98615.56
2022-10-30T17:36:12.913Z,98613.16
2022-10-30T17:38:39.457Z,98618.22
2022-10-30T17:41:06.970Z,98621.44
2022-10-30T17:43:34.820Z,98621.44
2022-10-30T17:46:01.451Z,98627.59
2022-10-30T17:48:28.642Z,98627.06
2022-10-30T17:50:55.428Z,98633.44
2022-10-30T17:53:25.359Z,98637.19
2022-10-30T17:56:06.487Z,98643.59
2022-10-30T17:58:33.366Z,98642.00
2022-10-30T18:00:59.966Z,98653.72
2022-10-30T18:03:26.442Z,98663.09
2022-10-30T18:05:53.129Z,98660.69
2022-10-30T18:08:19.643Z,98663.34
2022-10-30T18:10:46.224Z,98661.47
2022-10-30T18:13:13.629Z,98667.84
2022-10-30T18:15:44.817Z,98667.06
2022-10-30T18:18:11.310Z,98663.31
2022-10-30T18:20:38.719Z,98668.41
2022-10-30T18:23:12.717Z,98670.50
2022-10-30T18:25:46.882Z,98663.56
2022-10-30T18:28:13.339Z,98668.91
2022-10-30T18:30:39.871Z,98678.78
2022-10-30T18:33:06.362Z,98673.97
2022-10-30T18:35:36.831Z,98676.94
2022-10-30T18:38:03.677Z,98675.63
2022-10-30T18:40:30.164Z,98678.81
2022-10-30T18:42:56.986Z,98683.09
2022-10-30T18:45:25.543Z,98691.09
2022-10-30T18:47:52.342Z,98692.72
2022-10-30T18:50:19.720Z,98687.38
2022-10-30T18:52:46.245Z,98691.66
2022-10-30T18:55:17.288Z,98690.84
2022-10-30T18:57:44.167Z,98693.53
2022-10-30T19:00:11.113Z,98693.25
2022-10-30T19:02:37.812Z,98695.94
2022-10-30T19:05:27.113Z,98697.50
2022-10-30T19:07:54.183Z,98697.78
2022-10-30T19:10:20.745Z,98696.19
2022-10-30T19:13:11.045Z,98700.97
2022-10-30T19:15:35.143Z,98703.63
2022-10-30T19:18:02.182Z,98696.41
2022-10-30T19:20:44.056Z,98701.75
2022-10-30T19:23:20.607Z,98707.38
2022-10-30T19:25:47.712Z,98703.63
2022-10-30T19:28:14.926Z,98711.91
2022-10-30T19:30:41.705Z,98704.69
2022-10-30T19:33:09.124Z,98716.19
2022-10-30T19:35:35.573Z,98711.09
2022-10-30T19:38:02.983Z,98714.31
2022-10-30T19:40:33.633Z,98717.53
2022-10-30T19:43:00.317Z,98714.84
2022-10-30T19:45:28.847Z,98715.66
2022-10-30T19:47:56.771Z,98721.00
2022-10-30T19:50:39.134Z,98723.91
2022-10-30T19:53:05.982Z,98727.13
2022-10-30T19:55:33.939Z,98735.13
2022-10-30T19:58:00.796Z,98732.72
2022-10-30T20:00:32.307Z,98726.56
2022-10-30T20:02:59.235Z,98728.44
2022-10-30T20:05:27.717Z,98726.84
2022-10-30T20:08:05.435Z,98729.78
2022-10-30T20:12:59.680Z,98730.03
2022-10-30T20:15:27.348Z,98739.09
2022-10-30T20:17:53.913Z,98741.75
2022-10-30T20:20:22.887Z,98741.75
2022-10-30T20:22:51.159Z,98736.69
2022-10-30T20:25:17.841Z,98740.66
2022-10-30T20:27:44.721Z,98744.94
2022-10-30T20:30:14.316Z,98741.22
2022-10-30T20:32:40.792Z,98740.38
2022-10-30T20:35:10.429Z,98743.31
2022-10-30T20:37:37.937Z,98743.59
2022-10-30T20:40:04.884Z,98748.34
2022-10-30T20:42:36.964Z,98752.09
2022-10-30T20:45:04.358Z,98752.09
2022-10-30T20:47:30.835Z,98749.69
2022-10-30T20:49:57.323Z,98745.44
2022-10-30T20:52:23.809Z,98752.06
2022-10-30T20:54:50.374Z,98754.47
2022-10-30T20:57:17.968Z,98759.28
2022-10-30T20:59:44.782Z,98757.91
2022-10-30T21:02:11.596Z,98744.31
2022-10-30T21:04:38.148Z,98752.31
2022-10-30T21:07:04.609Z,98750.44
2022-10-30T21:09:31.061Z,98749.09
2022-10-30T21:11:57.543Z,98753.41
2022-10-30T21:14:24.008Z,98761.16
2022-10-30T21:16:50.530Z,98763.00
2022-10-30T21:19:16.993Z,98770.75
2022-10-30T21:21:43.468Z,98768.34
2022-10-30T21:24:10.008Z,98778.75
2022-10-30T21:26:37.726Z,98773.69
2022-10-30T21:29:05.046Z,98781.69
2022-10-30T21:31:31.548Z,98788.09
2022-10-30T21:33:58.001Z,98783.00
2022-10-30T21:36:24.824Z,98785.66
2022-10-30T21:38:51.273Z,98785.94
2022-10-30T21:41:19.977Z,98784.31
2022-10-30T21:43:50.898Z,98790.69
2022-10-30T21:46:17.392Z,98787.00
2022-10-30T21:48:43.851Z,98793.38
2022-10-30T21:51:12.398Z,98794.41
2022-10-30T21:53:39.024Z,98790.63
2022-10-30T21:56:16.319Z,98794.63
2022-10-30T21:58:42.804Z,98794.38
2022-10-30T22:01:16.321Z,98794.63
2022-10-30T22:03:42.867Z,98793.06
2022-10-30T22:06:11.214Z,98792.81
2022-10-30T22:08:37.860Z,98793.06
2022-10-30T22:11:08.645Z,98792.25
2022-10-30T22:13:35.335Z,98799.19
2022-10-30T22:16:02.049Z,98799.69
2022-10-30T22:18:28.550Z,98802.38
2022-10-30T22:21:21.549Z,98802.63
2022-10-30T22:23:48.025Z,98801.56
2022-10-30T22:26:18.659Z,98799.16
2022-10-30T22:28:45.222Z,98807.19
2022-10-30T22:31:13.407Z,98806.59
2022-10-30T22:33:39.927Z,98805.00
2022-10-30T22:36:13.019Z,98808.72
2022-10-30T22:38:39.490Z,98816.72
2022-10-30T22:41:08.666Z,98817.47
2022-10-30T22:43:35.133Z,98819.53
2022-10-30T22:46:02.028Z,98819.78
2022-10-30T22:48:29.061Z,98820.09
2022-10-30T22:50:59.444Z,98815.78
2022-10-30T22:53:26.701Z,98822.75
2022-10-30T22:55:53.285Z,98829.94
2022-10-30T22:58:19.775Z,98823.75
2022-10-30T23:00:46.241Z,98826.69
2022-10-30T23:03:12.843Z,98825.59
2022-10-30T23:05:39.322Z,98827.19
2022-10-30T23:08:05.827Z,98826.38
2022-10-30T23:10:32.323Z,98823.47
2022-10-30T23:12:59.064Z,98830.69
2022-10-30T23:15:25.722Z,98831.47
2022-10-30T23:17:52.188Z,98840.28
2022-10-30T23:20:18.693Z,98840.28
2022-10-30T23:22:45.146Z,98842.94
2022-10-30T23:25:11.609Z,98830.69
2022-10-30T23:27:38.079Z,98842.16
2022-10-30T23:30:04.972Z,98836.81
2022-10-30T23:32:31.427Z,98840.28
2022-10-30T23:34:57.878Z,98848.53
2022-10-30T23:37:24.327Z,98847.47
2022-10-30T23:39:50.818Z,98844.81
2022-10-30T23:42:17.273Z,98847.47
2022-10-30T23:44:43.727Z,98850.94
2022-10-30T23:47:10.182Z,98859.19
2022-10-30T23:49:36.639Z,98856.53
2022-10-30T23:52:03.120Z,98853.63
2022-10-30T23:54:29.623Z,98866.94
2022-10-30T23:56:56.090Z,98871.47
2022-10-30T23:59:22.562Z,98860.81
